sensor_id;sensor_type;location;lat;lon;timestamp;temperature;humidity
15930;DHT22;8064;51.142;4.780;2023-10-19T00:02:00;15.80;99.90
15930;DHT22;8064;51.142;4.780;2023-10-19T00:04:26;15.90;99.90
15930;DHT22;8064;51.142;4.780;2023-10-19T00:06:56;15.90;99.90
15930;DHT22;8064;51.142;4.780;2023-10-19T00:09:22;16.00;99.90
15930;DHT22;8064;51.142;4.780;2023-10-19T00:11:48;16.00;99.90
15930;DHT22;8064;51.142;4.780;2023-10-19T00:14:17;16.10;99.90
15930;DHT22;8064;51.142;4.780;2023-10-19T00:16:44;16.10;99.90
15930;DHT22;8064;51.142;4.780;2023-10-19T00:19:18;16.10;99.90
15930;DHT22;8064;51.142;4.780;2023-10-19T00:21:46;16.20;99.90
15930;DHT22;8064;51.142;4.780;2023-10-19T00:24:21;16.20;99.90
15930;DHT22;8064;51.142;4.780;2023-10-19T00:26:49;16.20;99.90
15930;DHT22;8064;51.142;4.780;2023-10-19T00:29:19;16.20;99.90
15930;DHT22;8064;51.142;4.780;2023-10-19T00:31:58;16.20;99.90
15930;DHT22;8064;51.142;4.780;2023-10-19T00:34:27;16.20;99.90
15930;DHT22;8064;51.142;4.780;2023-10-19T00:36:54;16.20;99.90
15930;DHT22;8064;51.142;4.780;2023-10-19T00:39:22;16.20;99.90
15930;DHT22;8064;51.142;4.780;2023-10-19T00:41:50;16.20;99.90
15930;DHT22;8064;51.142;4.780;2023-10-19T00:44:16;16.30;99.90
15930;DHT22;8064;51.142;4.780;2023-10-19T00:46:48;16.30;99.90
15930;DHT22;8064;51.142;4.780;2023-10-19T00:49:26;16.30;99.90
15930;DHT22;8064;51.142;4.780;2023-10-19T00:51:53;16.30;99.90
15930;DHT22;8064;51.142;4.780;2023-10-19T00:54:35;16.30;99.90
15930;DHT22;8064;51.142;4.780;2023-10-19T00:57:03;16.40;99.90
15930;DHT22;8064;51.142;4.780;2023-10-19T00:59:32;16.30;99.90
15930;DHT22;8064;51.142;4.780;2023-10-19T01:02:09;16.30;99.90
15930;DHT22;8064;51.142;4.780;2023-10-19T01:04:44;16.40;99.90
15930;DHT22;8064;51.142;4.780;2023-10-19T01:07:12;16.40;99.90
15930;DHT22;8064;51.142;4.780;2023-10-19T01:09:42;16.40;99.90
15930;DHT22;8064;51.142;4.780;2023-10-19T01:12:09;16.40;99.90
15930;DHT22;8064;51.142;4.780;2023-10-19T01:15:11;16.40;99.90
15930;DHT22;8064;51.142;4.780;2023-10-19T01:17:45;16.40;99.90
15930;DHT22;8064;51.142;4.780;2023-10-19T01:20:13;16.40;99.90
15930;DHT22;8064;51.142;4.780;2023-10-19T01:22:55;16.40;99.90
15930;DHT22;8064;51.142;4.780;2023-10-19T01:25:52;16.40;99.90
15930;DHT22;8064;51.142;4.780;2023-10-19T01:31:11;16.40;99.90
15930;DHT22;8064;51.142;4.780;2023-10-19T01:33:48;16.40;99.90
15930;DHT22;8064;51.142;4.780;2023-10-19T01:36:14;16.40;99.90
15930;DHT22;8064;51.142;4.780;2023-10-19T01:38:45;16.40;99.90
15930;DHT22;8064;51.142;4.780;2023-10-19T01:41:13;16.40;99.90
15930;DHT22;8064;51.142;4.780;2023-10-19T01:43:40;16.40;99.90
15930;DHT22;8064;51.142;4.780;2023-10-19T01:46:06;16.40;99.90
15930;DHT22;8064;51.142;4.780;2023-10-19T01:48:39;16.40;99.90
15930;DHT22;8064;51.142;4.780;2023-10-19T01:51:08;16.40;99.90
15930;DHT22;8064;51.142;4.780;2023-10-19T01:53:37;16.40;99.90
15930;DHT22;8064;51.142;4.780;2023-10-19T01:56:11;16.40;99.90
15930;DHT22;8064;51.142;4.780;2023-10-19T01:58:38;16.40;99.90
15930;DHT22;8064;51.142;4.780;2023-10-19T02:01:05;16.40;99.90
15930;DHT22;8064;51.142;4.780;2023-10-19T02:03:37;16.40;99.90
15930;DHT22;8064;51.142;4.780;2023-10-19T02:06:11;16.40;99.90
15930;DHT22;8064;51.142;4.780;2023-10-19T02:08:54;16.40;99.90
15930;DHT22;8064;51.142;4.780;2023-10-19T02:11:27;16.40;99.90
15930;DHT22;8064;51.142;4.780;2023-10-19T02:13:55;16.40;99.90
15930;DHT22;8064;51.142;4.780;2023-10-19T02:16:26;16.40;99.90
15930;DHT22;8064;51.142;4.780;2023-10-19T02:18:55;16.40;99.90
15930;DHT22;8064;51.142;4.780;2023-10-19T02:21:21;16.40;99.90
15930;DHT22;8064;51.142;4.780;2023-10-19T02:23:49;16.40;99.90
15930;DHT22;8064;51.142;4.780;2023-10-19T02:26:17;16.40;99.90
15930;DHT22;8064;51.142;4.780;2023-10-19T02:28:46;16.40;99.90
15930;DHT22;8064;51.142;4.780;2023-10-19T02:31:12;16.40;99.90
15930;DHT22;8064;51.142;4.780;2023-10-19T02:33:52;16.40;99.90
15930;DHT22;8064;51.142;4.780;2023-10-19T02:36:26;16.40;99.90
15930;DHT22;8064;51.142;4.780;2023-10-19T02:39:00;16.40;99.90
15930;DHT22;8064;51.142;4.780;2023-10-19T02:41:34;16.40;99.90
15930;DHT22;8064;51.142;4.780;2023-10-19T02:44:03;16.40;99.90
15930;DHT22;8064;51.142;4.780;2023-10-19T02:46:29;16.40;99.90
15930;DHT22;8064;51.142;4.780;2023-10-19T02:49:02;16.30;99.90
15930;DHT22;8064;51.142;4.780;2023-10-19T02:51:29;16.40;99.90
15930;DHT22;8064;51.142;4.780;2023-10-19T02:53:56;16.40;99.90
15930;DHT22;8064;51.142;4.780;2023-10-19T02:56:22;16.30;99.90
15930;DHT22;8064;51.142;4.780;2023-10-19T02:58:50;16.40;99.90
15930;DHT22;8064;51.142;4.780;2023-10-19T03:01:18;16.40;99.90
15930;DHT22;8064;51.142;4.780;2023-10-19T03:03:48;16.40;99.90
15930;DHT22;8064;51.142;4.780;2023-10-19T03:06:18;16.40;99.90
15930;DHT22;8064;51.142;4.780;2023-10-19T03:08:45;16.30;99.90
15930;DHT22;8064;51.142;4.780;2023-10-19T03:11:12;16.30;99.90
15930;DHT22;8064;51.142;4.780;2023-10-19T03:13:40;16.30;99.90
15930;DHT22;8064;51.142;4.780;2023-10-19T03:16:07;16.30;99.90
15930;DHT22;8064;51.142;4.780;2023-10-19T03:18:34;16.30;99.90
15930;DHT22;8064;51.142;4.780;2023-10-19T03:21:01;16.30;99.90
15930;DHT22;8064;51.142;4.780;2023-10-19T03:23:27;16.20;99.90
15930;DHT22;8064;51.142;4.780;2023-10-19T03:25:55;16.20;99.90
15930;DHT22;8064;51.142;4.780;2023-10-19T03:28:42;16.20;99.90
15930;DHT22;8064;51.142;4.780;2023-10-19T03:31:09;16.20;99.90
15930;DHT22;8064;51.142;4.780;2023-10-19T03:33:44;16.10;99.90
15930;DHT22;8064;51.142;4.780;2023-10-19T03:36:09;16.10;99.90
15930;DHT22;8064;51.142;4.780;2023-10-19T03:38:39;16.10;99.90
15930;DHT22;8064;51.142;4.780;2023-10-19T03:41:06;16.10;99.90
15930;DHT22;8064;51.142;4.780;2023-10-19T03:43:34;16.10;99.90
15930;DHT22;8064;51.142;4.780;2023-10-19T03:46:02;16.00;99.90
15930;DHT22;8064;51.142;4.780;2023-10-19T03:48:32;16.00;99.90
15930;DHT22;8064;51.142;4.780;2023-10-19T03:51:04;16.00;99.90
15930;DHT22;8064;51.142;4.780;2023-10-19T03:53:30;16.00;99.90
15930;DHT22;8064;51.142;4.780;2023-10-19T03:55:58;16.00;99.90
15930;DHT22;8064;51.142;4.780;2023-10-19T03:58:24;16.00;99.90
15930;DHT22;8064;51.142;4.780;2023-10-19T04:00:54;16.00;99.90
15930;DHT22;8064;51.142;4.780;2023-10-19T04:03:26;16.00;99.90
15930;DHT22;8064;51.142;4.780;2023-10-19T04:05:55;16.00;99.90
15930;DHT22;8064;51.142;4.780;2023-10-19T04:08:21;16.00;99.90
15930;DHT22;8064;51.142;4.780;2023-10-19T04:10:51;16.00;99.90
15930;DHT22;8064;51.142;4.780;2023-10-19T04:13:35;16.00;99.90
15930;DHT22;8064;51.142;4.780;2023-10-19T04:16:02;16.00;99.90
15930;DHT22;8064;51.142;4.780;2023-10-19T04:18:28;16.00;99.90
15930;DHT22;8064;51.142;4.780;2023-10-19T04:20:54;16.00;99.90
15930;DHT22;8064;51.142;4.780;2023-10-19T04:23:22;16.00;99.90
15930;DHT22;8064;51.142;4.780;2023-10-19T04:25:53;16.00;99.90
15930;DHT22;8064;51.142;4.780;2023-10-19T04:28:22;16.00;99.90
15930;DHT22;8064;51.142;4.780;2023-10-19T04:30:56;16.00;99.90
15930;DHT22;8064;51.142;4.780;2023-10-19T04:33:29;16.00;99.90
15930;DHT22;8064;51.142;4.780;2023-10-19T04:35:54;16.00;99.90
15930;DHT22;8064;51.142;4.780;2023-10-19T04:38:23;16.00;99.90
15930;DHT22;8064;51.142;4.780;2023-10-19T04:40:49;16.00;99.90
15930;DHT22;8064;51.142;4.780;2023-10-19T04:43:14;16.00;99.90
15930;DHT22;8064;51.142;4.780;2023-10-19T04:45:42;16.00;99.90
15930;DHT22;8064;51.142;4.780;2023-10-19T04:48:10;16.00;99.90
15930;DHT22;8064;51.142;4.780;2023-10-19T04:50:36;16.00;99.90
15930;DHT22;8064;51.142;4.780;2023-10-19T04:53:02;16.00;99.90
15930;DHT22;8064;51.142;4.780;2023-10-19T04:55:29;16.00;99.90
15930;DHT22;8064;51.142;4.780;2023-10-19T04:57:55;16.00;99.90
15930;DHT22;8064;51.142;4.780;2023-10-19T05:00:22;16.00;99.90
15930;DHT22;8064;51.142;4.780;2023-10-19T05:02:50;16.00;99.90
15930;DHT22;8064;51.142;4.780;2023-10-19T05:05:18;16.00;99.90
15930;DHT22;8064;51.142;4.780;2023-10-19T05:07:44;16.00;99.90
15930;DHT22;8064;51.142;4.780;2023-10-19T05:10:10;16.00;99.90
15930;DHT22;8064;51.142;4.780;2023-10-19T05:12:36;16.10;99.90
15930;DHT22;8064;51.142;4.780;2023-10-19T05:15:02;16.00;99.90
15930;DHT22;8064;51.142;4.780;2023-10-19T05:17:28;16.00;99.90
15930;DHT22;8064;51.142;4.780;2023-10-19T05:19:54;16.10;99.90
15930;DHT22;8064;51.142;4.780;2023-10-19T05:22:20;16.10;99.90
15930;DHT22;8064;51.142;4.780;2023-10-19T05:24:47;16.00;99.90
15930;DHT22;8064;51.142;4.780;2023-10-19T05:27:13;16.10;99.90
15930;DHT22;8064;51.142;4.780;2023-10-19T05:29:39;16.10;99.90
15930;DHT22;8064;51.142;4.780;2023-10-19T05:32:05;16.00;99.90
15930;DHT22;8064;51.142;4.780;2023-10-19T05:34:31;16.10;99.90
15930;DHT22;8064;51.142;4.780;2023-10-19T05:37:00;16.10;99.90
15930;DHT22;8064;51.142;4.780;2023-10-19T05:39:28;16.10;99.90
15930;DHT22;8064;51.142;4.780;2023-10-19T05:41:55;16.10;99.90
15930;DHT22;8064;51.142;4.780;2023-10-19T05:44:21;16.10;99.90
15930;DHT22;8064;51.142;4.780;2023-10-19T05:46:50;16.10;99.90
15930;DHT22;8064;51.142;4.780;2023-10-19T05:49:16;16.10;99.90
15930;DHT22;8064;51.142;4.780;2023-10-19T05:51:43;16.10;99.90
15930;DHT22;8064;51.142;4.780;2023-10-19T05:54:10;16.10;99.90
15930;DHT22;8064;51.142;4.780;2023-10-19T05:56:36;16.10;99.90
15930;DHT22;8064;51.142;4.780;2023-10-19T05:59:02;16.10;99.90
15930;DHT22;8064;51.142;4.780;2023-10-19T06:01:28;16.10;99.90
15930;DHT22;8064;51.142;4.780;2023-10-19T06:03:54;16.10;99.90
15930;DHT22;8064;51.142;4.780;2023-10-19T06:06:20;16.10;99.90
15930;DHT22;8064;51.142;4.780;2023-10-19T06:08:46;16.10;99.90
15930;DHT22;8064;51.142;4.780;2023-10-19T06:11:12;16.10;99.90
15930;DHT22;8064;51.142;4.780;2023-10-19T06:13:38;16.10;99.90
15930;DHT22;8064;51.142;4.780;2023-10-19T06:16:04;16.10;99.90
15930;DHT22;8064;51.142;4.780;2023-10-19T06:18:30;16.10;99.90
15930;DHT22;8064;51.142;4.780;2023-10-19T06:20:57;16.10;99.90
15930;DHT22;8064;51.142;4.780;2023-10-19T06:23:23;16.10;99.90
15930;DHT22;8064;51.142;4.780;2023-10-19T06:25:49;16.10;99.90
15930;DHT22;8064;51.142;4.780;2023-10-19T06:28:17;16.20;99.90
15930;DHT22;8064;51.142;4.780;2023-10-19T06:30:43;16.10;99.90
15930;DHT22;8064;51.142;4.780;2023-10-19T06:33:09;16.20;99.90
15930;DHT22;8064;51.142;4.780;2023-10-19T06:35:35;16.20;99.90
15930;DHT22;8064;51.142;4.780;2023-10-19T06:38:03;16.20;99.90
15930;DHT22;8064;51.142;4.780;2023-10-19T06:40:30;16.20;99.90
15930;DHT22;8064;51.142;4.780;2023-10-19T06:42:57;16.20;99.90
15930;DHT22;8064;51.142;4.780;2023-10-19T06:45:25;16.20;99.90
15930;DHT22;8064;51.142;4.780;2023-10-19T06:47:52;16.20;99.90
15930;DHT22;8064;51.142;4.780;2023-10-19T06:50:21;16.20;99.90
15930;DHT22;8064;51.142;4.780;2023-10-19T06:52:48;16.30;99.90
15930;DHT22;8064;51.142;4.780;2023-10-19T06:55:16;16.30;99.90
15930;DHT22;8064;51.142;4.780;2023-10-19T06:57:48;16.30;99.90
15930;DHT22;8064;51.142;4.780;2023-10-19T07:00:16;16.30;99.90
15930;DHT22;8064;51.142;4.780;2023-10-19T07:02:46;16.30;99.90
15930;DHT22;8064;51.142;4.780;2023-10-19T07:05:14;16.30;99.90
15930;DHT22;8064;51.142;4.780;2023-10-19T07:07:45;16.30;99.90
15930;DHT22;8064;51.142;4.780;2023-10-19T07:10:12;16.40;99.90
15930;DHT22;8064;51.142;4.780;2023-10-19T07:12:40;16.40;99.90
15930;DHT22;8064;51.142;4.780;2023-10-19T07:15:08;16.40;99.90
15930;DHT22;8064;51.142;4.780;2023-10-19T07:17:36;16.40;99.90
15930;DHT22;8064;51.142;4.780;2023-10-19T07:20:05;16.40;99.90
15930;DHT22;8064;51.142;4.780;2023-10-19T07:22:32;16.40;99.90
15930;DHT22;8064;51.142;4.780;2023-10-19T07:24:59;16.40;99.90
15930;DHT22;8064;51.142;4.780;2023-10-19T07:27:26;16.50;99.90
15930;DHT22;8064;51.142;4.780;2023-10-19T07:29:54;16.50;99.90
15930;DHT22;8064;51.142;4.780;2023-10-19T07:32:19;16.60;99.90
15930;DHT22;8064;51.142;4.780;2023-10-19T07:34:46;16.60;99.90
15930;DHT22;8064;51.142;4.780;2023-10-19T07:37:12;16.70;99.90
15930;DHT22;8064;51.142;4.780;2023-10-19T07:39:46;16.80;99.90
15930;DHT22;8064;51.142;4.780;2023-10-19T07:42:13;16.90;99.90
15930;DHT22;8064;51.142;4.780;2023-10-19T07:44:40;17.00;99.90
15930;DHT22;8064;51.142;4.780;2023-10-19T07:47:06;17.10;99.90
15930;DHT22;8064;51.142;4.780;2023-10-19T07:49:35;17.30;99.90
15930;DHT22;8064;51.142;4.780;2023-10-19T07:52:04;17.40;99.90
15930;DHT22;8064;51.142;4.780;2023-10-19T07:54:34;17.50;99.90
15930;DHT22;8064;51.142;4.780;2023-10-19T07:57:01;17.70;99.90
15930;DHT22;8064;51.142;4.780;2023-10-19T07:59:32;17.90;99.90
15930;DHT22;8064;51.142;4.780;2023-10-19T08:01:57;18.20;99.90
15930;DHT22;8064;51.142;4.780;2023-10-19T08:04:23;18.40;99.90
15930;DHT22;8064;51.142;4.780;2023-10-19T08:06:51;18.60;99.90
15930;DHT22;8064;51.142;4.780;2023-10-19T08:09:16;18.80;99.90
15930;DHT22;8064;51.142;4.780;2023-10-19T08:11:49;18.80;99.90
15930;DHT22;8064;51.142;4.780;2023-10-19T08:14:15;18.80;99.90
15930;DHT22;8064;51.142;4.780;2023-10-19T08:16:40;18.80;99.90
15930;DHT22;8064;51.142;4.780;2023-10-19T08:19:07;19.00;99.90
15930;DHT22;8064;51.142;4.780;2023-10-19T08:21:33;19.20;99.90
15930;DHT22;8064;51.142;4.780;2023-10-19T08:24:00;19.30;99.90
15930;DHT22;8064;51.142;4.780;2023-10-19T08:26:31;19.40;99.90
15930;DHT22;8064;51.142;4.780;2023-10-19T08:28:57;19.50;99.90
15930;DHT22;8064;51.142;4.780;2023-10-19T08:31:24;19.50;99.90
15930;DHT22;8064;51.142;4.780;2023-10-19T08:33:50;19.60;99.90
15930;DHT22;8064;51.142;4.780;2023-10-19T08:36:19;19.60;99.90
15930;DHT22;8064;51.142;4.780;2023-10-19T08:38:46;19.60;99.90
15930;DHT22;8064;51.142;4.780;2023-10-19T08:41:14;19.70;99.90
15930;DHT22;8064;51.142;4.780;2023-10-19T08:43:41;19.80;99.90
15930;DHT22;8064;51.142;4.780;2023-10-19T08:46:06;20.00;99.90
15930;DHT22;8064;51.142;4.780;2023-10-19T08:48:34;20.20;99.90
15930;DHT22;8064;51.142;4.780;2023-10-19T08:51:03;20.30;99.90
15930;DHT22;8064;51.142;4.780;2023-10-19T08:53:35;20.20;99.90
15930;DHT22;8064;51.142;4.780;2023-10-19T08:56:06;20.20;99.90
15930;DHT22;8064;51.142;4.780;2023-10-19T08:58:33;20.10;99.90
15930;DHT22;8064;51.142;4.780;2023-10-19T09:00:59;20.10;99.90
15930;DHT22;8064;51.142;4.780;2023-10-19T09:03:32;20.20;99.90
15930;DHT22;8064;51.142;4.780;2023-10-19T09:06:01;20.40;99.90
15930;DHT22;8064;51.142;4.780;2023-10-19T09:08:27;20.50;99.90
15930;DHT22;8064;51.142;4.780;2023-10-19T09:11:07;20.60;99.90
15930;DHT22;8064;51.142;4.780;2023-10-19T09:13:43;21.00;99.90
15930;DHT22;8064;51.142;4.780;2023-10-19T09:16:13;21.00;99.90
15930;DHT22;8064;51.142;4.780;2023-10-19T09:18:39;20.70;99.90
15930;DHT22;8064;51.142;4.780;2023-10-19T09:21:07;20.40;99.90
15930;DHT22;8064;51.142;4.780;2023-10-19T09:23:37;20.30;99.90
15930;DHT22;8064;51.142;4.780;2023-10-19T09:26:04;20.10;99.90
15930;DHT22;8064;51.142;4.780;2023-10-19T09:28:36;20.00;99.90
15930;DHT22;8064;51.142;4.780;2023-10-19T09:31:03;19.90;99.90
15930;DHT22;8064;51.142;4.780;2023-10-19T09:33:31;19.70;99.90
15930;DHT22;8064;51.142;4.780;2023-10-19T09:36:00;19.60;99.90
15930;DHT22;8064;51.142;4.780;2023-10-19T09:38:27;19.40;99.90
15930;DHT22;8064;51.142;4.780;2023-10-19T09:40:54;19.30;99.90
15930;DHT22;8064;51.142;4.780;2023-10-19T09:43:34;19.20;99.90
15930;DHT22;8064;51.142;4.780;2023-10-19T09:46:06;19.20;99.90
15930;DHT22;8064;51.142;4.780;2023-10-19T09:48:40;19.10;99.90
15930;DHT22;8064;51.142;4.780;2023-10-19T09:51:07;19.10;99.90
15930;DHT22;8064;51.142;4.780;2023-10-19T09:53:34;19.10;99.90
15930;DHT22;8064;51.142;4.780;2023-10-19T09:56:06;19.20;99.90
15930;DHT22;8064;51.142;4.780;2023-10-19T09:58:43;19.20;99.90
15930;DHT22;8064;51.142;4.780;2023-10-19T10:01:10;19.30;99.90
15930;DHT22;8064;51.142;4.780;2023-10-19T10:03:49;19.20;99.90
15930;DHT22;8064;51.142;4.780;2023-10-19T10:06:27;19.20;99.90
15930;DHT22;8064;51.142;4.780;2023-10-19T10:08:54;19.10;99.90
15930;DHT22;8064;51.142;4.780;2023-10-19T10:11:23;19.10;99.90
15930;DHT22;8064;51.142;4.780;2023-10-19T10:13:50;19.00;99.90
15930;DHT22;8064;51.142;4.780;2023-10-19T10:16:19;18.90;99.90
15930;DHT22;8064;51.142;4.780;2023-10-19T10:18:47;18.90;99.90
15930;DHT22;8064;51.142;4.780;2023-10-19T10:21:18;18.90;99.90
15930;DHT22;8064;51.142;4.780;2023-10-19T10:23:48;18.80;99.90
15930;DHT22;8064;51.142;4.780;2023-10-19T10:26:16;18.80;99.90
15930;DHT22;8064;51.142;4.780;2023-10-19T10:28:47;18.80;99.90
15930;DHT22;8064;51.142;4.780;2023-10-19T10:31:19;18.70;99.90
15930;DHT22;8064;51.142;4.780;2023-10-19T10:33:50;18.70;99.90
15930;DHT22;8064;51.142;4.780;2023-10-19T10:36:18;18.60;99.90
15930;DHT22;8064;51.142;4.780;2023-10-19T10:38:47;18.60;99.90
15930;DHT22;8064;51.142;4.780;2023-10-19T10:41:20;18.60;99.90
15930;DHT22;8064;51.142;4.780;2023-10-19T10:43:50;18.60;99.90
15930;DHT22;8064;51.142;4.780;2023-10-19T10:46:19;18.50;99.90
15930;DHT22;8064;51.142;4.780;2023-10-19T10:48:45;18.40;99.90
15930;DHT22;8064;51.142;4.780;2023-10-19T10:51:30;18.40;99.90
15930;DHT22;8064;51.142;4.780;2023-10-19T10:53:57;18.40;99.90
15930;DHT22;8064;51.142;4.780;2023-10-19T10:56:24;18.40;99.90
15930;DHT22;8064;51.142;4.780;2023-10-19T10:58:50;18.40;99.90
15930;DHT22;8064;51.142;4.780;2023-10-19T11:01:29;18.40;99.90
15930;DHT22;8064;51.142;4.780;2023-10-19T11:04:11;18.50;99.90
15930;DHT22;8064;51.142;4.780;2023-10-19T11:06:49;18.60;99.90
15930;DHT22;8064;51.142;4.780;2023-10-19T11:09:15;18.60;99.90
15930;DHT22;8064;51.142;4.780;2023-10-19T11:11:45;18.80;99.90
15930;DHT22;8064;51.142;4.780;2023-10-19T11:14:11;18.80;99.90
15930;DHT22;8064;51.142;4.780;2023-10-19T11:16:37;18.80;99.90
15930;DHT22;8064;51.142;4.780;2023-10-19T11:19:05;18.80;99.90
15930;DHT22;8064;51.142;4.780;2023-10-19T11:21:31;18.70;99.90
15930;DHT22;8064;51.142;4.780;2023-10-19T11:23:57;18.70;99.90
15930;DHT22;8064;51.142;4.780;2023-10-19T11:26:24;18.70;99.90
15930;DHT22;8064;51.142;4.780;2023-10-19T11:28:58;18.60;99.90
15930;DHT22;8064;51.142;4.780;2023-10-19T11:31:24;18.60;99.90
15930;DHT22;8064;51.142;4.780;2023-10-19T11:33:51;18.50;99.90
15930;DHT22;8064;51.142;4.780;2023-10-19T11:36:19;18.50;99.90
15930;DHT22;8064;51.142;4.780;2023-10-19T11:38:47;18.40;99.90
15930;DHT22;8064;51.142;4.780;2023-10-19T11:41:14;18.40;99.90
15930;DHT22;8064;51.142;4.780;2023-10-19T11:43:41;18.30;99.90
15930;DHT22;8064;51.142;4.780;2023-10-19T11:46:08;18.40;99.90
15930;DHT22;8064;51.142;4.780;2023-10-19T11:48:35;18.30;99.90
15930;DHT22;8064;51.142;4.780;2023-10-19T11:51:02;18.20;99.90
15930;DHT22;8064;51.142;4.780;2023-10-19T11:53:32;18.20;99.90
15930;DHT22;8064;51.142;4.780;2023-10-19T11:56:03;18.10;99.90
15930;DHT22;8064;51.142;4.780;2023-10-19T11:58:30;18.10;99.90
15930;DHT22;8064;51.142;4.780;2023-10-19T12:01:06;18.10;99.90
15930;DHT22;8064;51.142;4.780;2023-10-19T12:03:35;18.10;99.90
15930;DHT22;8064;51.142;4.780;2023-10-19T12:06:04;18.00;99.90
15930;DHT22;8064;51.142;4.780;2023-10-19T12:08:38;18.00;99.90
15930;DHT22;8064;51.142;4.780;2023-10-19T12:11:05;17.90;99.90
15930;DHT22;8064;51.142;4.780;2023-10-19T12:13:41;17.90;99.90
15930;DHT22;8064;51.142;4.780;2023-10-19T12:16:09;17.90;99.90
15930;DHT22;8064;51.142;4.780;2023-10-19T12:18:38;17.90;99.90
15930;DHT22;8064;51.142;4.780;2023-10-19T12:21:04;17.90;99.90
15930;DHT22;8064;51.142;4.780;2023-10-19T12:23:33;17.80;99.90
15930;DHT22;8064;51.142;4.780;2023-10-19T12:25:59;17.80;99.90
15930;DHT22;8064;51.142;4.780;2023-10-19T12:28:29;17.80;99.90
15930;DHT22;8064;51.142;4.780;2023-10-19T12:30:55;17.70;99.90
15930;DHT22;8064;51.142;4.780;2023-10-19T12:33:21;17.70;99.90
15930;DHT22;8064;51.142;4.780;2023-10-19T12:35:47;17.70;99.90
15930;DHT22;8064;51.142;4.780;2023-10-19T12:38:23;17.70;99.90
15930;DHT22;8064;51.142;4.780;2023-10-19T12:40:50;17.70;99.90
15930;DHT22;8064;51.142;4.780;2023-10-19T12:43:17;17.70;99.90
15930;DHT22;8064;51.142;4.780;2023-10-19T12:45:49;17.70;99.90
15930;DHT22;8064;51.142;4.780;2023-10-19T12:48:23;17.70;99.90
15930;DHT22;8064;51.142;4.780;2023-10-19T12:50:55;17.60;99.90
15930;DHT22;8064;51.142;4.780;2023-10-19T12:53:21;17.60;99.90
15930;DHT22;8064;51.142;4.780;2023-10-19T12:55:50;17.60;99.90
15930;DHT22;8064;51.142;4.780;2023-10-19T12:58:16;17.60;99.90
15930;DHT22;8064;51.142;4.780;2023-10-19T13:00:45;17.60;99.90
15930;DHT22;8064;51.142;4.780;2023-10-19T13:03:13;17.60;99.90
15930;DHT22;8064;51.142;4.780;2023-10-19T13:05:42;17.60;99.90
15930;DHT22;8064;51.142;4.780;2023-10-19T13:08:10;17.60;99.90
15930;DHT22;8064;51.142;4.780;2023-10-19T13:10:46;17.60;99.90
15930;DHT22;8064;51.142;4.780;2023-10-19T13:13:13;17.70;99.90
15930;DHT22;8064;51.142;4.780;2023-10-19T13:15:44;17.80;99.90
15930;DHT22;8064;51.142;4.780;2023-10-19T13:18:11;17.90;99.90
15930;DHT22;8064;51.142;4.780;2023-10-19T13:20:39;18.00;99.90
15930;DHT22;8064;51.142;4.780;2023-10-19T13:23:10;18.10;99.90
15930;DHT22;8064;51.142;4.780;2023-10-19T13:25:38;18.20;99.90
15930;DHT22;8064;51.142;4.780;2023-10-19T13:28:08;18.20;99.90
15930;DHT22;8064;51.142;4.780;2023-10-19T13:30:40;18.20;99.90
15930;DHT22;8064;51.142;4.780;2023-10-19T13:33:06;18.30;99.90
15930;DHT22;8064;51.142;4.780;2023-10-19T13:35:36;18.30;99.90
15930;DHT22;8064;51.142;4.780;2023-10-19T13:38:03;18.30;99.90
15930;DHT22;8064;51.142;4.780;2023-10-19T13:40:29;18.40;99.90
15930;DHT22;8064;51.142;4.780;2023-10-19T13:42:56;18.50;99.90
15930;DHT22;8064;51.142;4.780;2023-10-19T13:45:23;18.60;99.90
15930;DHT22;8064;51.142;4.780;2023-10-19T13:47:49;18.60;99.90
15930;DHT22;8064;51.142;4.780;2023-10-19T13:50:14;18.70;99.90
15930;DHT22;8064;51.142;4.780;2023-10-19T13:52:41;18.70;99.90
15930;DHT22;8064;51.142;4.780;2023-10-19T13:55:07;18.60;99.90
15930;DHT22;8064;51.142;4.780;2023-10-19T13:57:33;18.70;99.90
15930;DHT22;8064;51.142;4.780;2023-10-19T13:59:59;18.70;99.90
15930;DHT22;8064;51.142;4.780;2023-10-19T14:02:26;18.70;99.90
15930;DHT22;8064;51.142;4.780;2023-10-19T14:04:52;18.60;99.90
15930;DHT22;8064;51.142;4.780;2023-10-19T14:07:18;18.60;99.90
15930;DHT22;8064;51.142;4.780;2023-10-19T14:09:45;18.70;99.90
15930;DHT22;8064;51.142;4.780;2023-10-19T14:12:11;18.70;99.90
15930;DHT22;8064;51.142;4.780;2023-10-19T14:14:37;18.80;99.90
15930;DHT22;8064;51.142;4.780;2023-10-19T14:17:02;18.80;99.90
15930;DHT22;8064;51.142;4.780;2023-10-19T14:19:28;18.80;99.90
15930;DHT22;8064;51.142;4.780;2023-10-19T14:21:54;18.90;99.90
15930;DHT22;8064;51.142;4.780;2023-10-19T14:24:20;19.00;99.90
15930;DHT22;8064;51.142;4.780;2023-10-19T14:26:46;19.00;99.90
15930;DHT22;8064;51.142;4.780;2023-10-19T14:29:13;18.90;99.90
15930;DHT22;8064;51.142;4.780;2023-10-19T14:31:39;19.00;99.90
15930;DHT22;8064;51.142;4.780;2023-10-19T14:34:06;19.00;99.90
15930;DHT22;8064;51.142;4.780;2023-10-19T14:36:33;19.00;99.90
15930;DHT22;8064;51.142;4.780;2023-10-19T14:38:59;19.00;99.90
15930;DHT22;8064;51.142;4.780;2023-10-19T14:41:25;19.00;99.90
15930;DHT22;8064;51.142;4.780;2023-10-19T14:43:51;19.00;99.90
15930;DHT22;8064;51.142;4.780;2023-10-19T14:46:16;19.00;99.90
15930;DHT22;8064;51.142;4.780;2023-10-19T14:48:44;19.00;99.90
15930;DHT22;8064;51.142;4.780;2023-10-19T14:51:10;19.00;99.90
15930;DHT22;8064;51.142;4.780;2023-10-19T14:53:37;19.00;99.90
15930;DHT22;8064;51.142;4.780;2023-10-19T14:56:03;19.00;99.90
15930;DHT22;8064;51.142;4.780;2023-10-19T14:58:29;19.00;99.90
15930;DHT22;8064;51.142;4.780;2023-10-19T15:00:57;18.90;99.90
15930;DHT22;8064;51.142;4.780;2023-10-19T15:03:23;18.90;99.90
15930;DHT22;8064;51.142;4.780;2023-10-19T15:05:51;18.80;99.90
15930;DHT22;8064;51.142;4.780;2023-10-19T15:08:18;18.80;99.90
15930;DHT22;8064;51.142;4.780;2023-10-19T15:10:45;18.80;99.90
15930;DHT22;8064;51.142;4.780;2023-10-19T15:13:11;18.70;99.90
15930;DHT22;8064;51.142;4.780;2023-10-19T15:15:37;18.70;99.90
15930;DHT22;8064;51.142;4.780;2023-10-19T15:18:03;18.70;99.90
15930;DHT22;8064;51.142;4.780;2023-10-19T15:20:30;18.70;99.90
15930;DHT22;8064;51.142;4.780;2023-10-19T15:22:56;18.70;99.90
15930;DHT22;8064;51.142;4.780;2023-10-19T15:25:23;18.60;99.90
15930;DHT22;8064;51.142;4.780;2023-10-19T15:27:51;18.70;99.90
15930;DHT22;8064;51.142;4.780;2023-10-19T15:30:17;18.60;99.90
15930;DHT22;8064;51.142;4.780;2023-10-19T15:32:47;18.60;99.90
15930;DHT22;8064;51.142;4.780;2023-10-19T15:35:14;18.60;99.90
15930;DHT22;8064;51.142;4.780;2023-10-19T15:37:46;18.60;99.90
15930;DHT22;8064;51.142;4.780;2023-10-19T15:40:14;18.50;99.90
15930;DHT22;8064;51.142;4.780;2023-10-19T15:42:41;18.50;99.90
15930;DHT22;8064;51.142;4.780;2023-10-19T15:45:10;18.50;99.90
15930;DHT22;8064;51.142;4.780;2023-10-19T15:47:37;18.40;99.90
15930;DHT22;8064;51.142;4.780;2023-10-19T15:50:03;18.40;99.90
15930;DHT22;8064;51.142;4.780;2023-10-19T15:52:29;18.30;99.90
15930;DHT22;8064;51.142;4.780;2023-10-19T15:54:57;18.40;99.90
15930;DHT22;8064;51.142;4.780;2023-10-19T15:57:23;18.30;99.90